sensor_id;sensor_type;location;lat;lon;timestamp;temperature;humidity
20915;DHT22;10617;52.032;5.298;2022-12-24T00:02:40;10.30;99.90
20915;DHT22;10617;52.032;5.298;2022-12-24T00:06:42;10.30;99.90
20915;DHT22;10617;52.032;5.298;2022-12-24T00:10:47;10.30;99.90
20915;DHT22;10617;52.032;5.298;2022-12-24T00:14:49;10.30;99.90
20915;DHT22;10617;52.032;5.298;2022-12-24T00:18:50;10.30;99.90
20915;DHT22;10617;52.032;5.298;2022-12-24T00:22:52;10.30;99.90
20915;DHT22;10617;52.032;5.298;2022-12-24T00:26:54;10.30;99.90
20915;DHT22;10617;52.032;5.298;2022-12-24T00:30:55;10.30;99.90
20915;DHT22;10617;52.032;5.298;2022-12-24T00:34:57;10.20;99.90
20915;DHT22;10617;52.032;5.298;2022-12-24T00:38:59;10.20;99.90
20915;DHT22;10617;52.032;5.298;2022-12-24T00:43:00;10.20;99.90
20915;DHT22;10617;52.032;5.298;2022-12-24T00:47:02;10.10;99.90
20915;DHT22;10617;52.032;5.298;2022-12-24T00:51:10;10.00;99.90
20915;DHT22;10617;52.032;5.298;2022-12-24T00:55:12;9.90;99.90
20915;DHT22;10617;52.032;5.298;2022-12-24T00:59:13;9.90;99.90
20915;DHT22;10617;52.032;5.298;2022-12-24T01:03:15;9.90;99.90
20915;DHT22;10617;52.032;5.298;2022-12-24T01:07:17;9.80;99.90
20915;DHT22;10617;52.032;5.298;2022-12-24T01:11:18;9.80;99.90
20915;DHT22;10617;52.032;5.298;2022-12-24T01:15:20;9.80;99.90
20915;DHT22;10617;52.032;5.298;2022-12-24T01:19:22;9.70;99.90
20915;DHT22;10617;52.032;5.298;2022-12-24T01:23:23;9.70;99.90
20915;DHT22;10617;52.032;5.298;2022-12-24T01:27:25;9.60;99.90
20915;DHT22;10617;52.032;5.298;2022-12-24T01:31:27;9.60;99.90
20915;DHT22;10617;52.032;5.298;2022-12-24T01:35:28;9.50;99.90
20915;DHT22;10617;52.032;5.298;2022-12-24T01:39:30;9.50;99.90
20915;DHT22;10617;52.032;5.298;2022-12-24T01:43:32;9.40;99.90
20915;DHT22;10617;52.032;5.298;2022-12-24T01:47:33;9.40;99.90
20915;DHT22;10617;52.032;5.298;2022-12-24T01:51:36;9.40;99.90
20915;DHT22;10617;52.032;5.298;2022-12-24T01:55:39;9.30;99.90
20915;DHT22;10617;52.032;5.298;2022-12-24T01:59:41;9.30;99.90
20915;DHT22;10617;52.032;5.298;2022-12-24T02:03:44;9.20;99.90
20915;DHT22;10617;52.032;5.298;2022-12-24T02:07:46;9.10;99.90
20915;DHT22;10617;52.032;5.298;2022-12-24T02:11:47;9.10;99.90
20915;DHT22;10617;52.032;5.298;2022-12-24T02:24:21;9.00;99.90
20915;DHT22;10617;52.032;5.298;2022-12-24T02:36:47;8.80;99.90
20915;DHT22;10617;52.032;5.298;2022-12-24T02:40:56;8.90;99.90
20915;DHT22;10617;52.032;5.298;2022-12-24T02:45:03;8.80;99.90
20915;DHT22;10617;52.032;5.298;2022-12-24T03:03:47;8.70;99.90
20915;DHT22;10617;52.032;5.298;2022-12-24T03:12:11;8.80;99.90
20915;DHT22;10617;52.032;5.298;2022-12-24T03:16:16;8.80;99.90
20915;DHT22;10617;52.032;5.298;2022-12-24T03:20:21;8.80;99.90
20915;DHT22;10617;52.032;5.298;2022-12-24T03:24:24;8.90;99.90
20915;DHT22;10617;52.032;5.298;2022-12-24T03:28:25;8.90;99.90
20915;DHT22;10617;52.032;5.298;2022-12-24T03:32:29;9.00;99.90
20915;DHT22;10617;52.032;5.298;2022-12-24T03:36:31;9.00;99.90
20915;DHT22;10617;52.032;5.298;2022-12-24T03:40:32;9.00;99.90
20915;DHT22;10617;52.032;5.298;2022-12-24T03:44:34;9.10;99.90
20915;DHT22;10617;52.032;5.298;2022-12-24T03:48:35;9.10;99.90
20915;DHT22;10617;52.032;5.298;2022-12-24T03:52:37;9.10;99.90
20915;DHT22;10617;52.032;5.298;2022-12-24T03:56:39;9.20;99.90
20915;DHT22;10617;52.032;5.298;2022-12-24T04:00:40;9.20;99.90
20915;DHT22;10617;52.032;5.298;2022-12-24T04:04:42;9.20;99.90
20915;DHT22;10617;52.032;5.298;2022-12-24T04:08:44;9.30;99.90
20915;DHT22;10617;52.032;5.298;2022-12-24T04:12:45;9.30;99.90
20915;DHT22;10617;52.032;5.298;2022-12-24T04:16:47;9.40;99.90
20915;DHT22;10617;52.032;5.298;2022-12-24T04:20:49;9.50;99.90
20915;DHT22;10617;52.032;5.298;2022-12-24T04:24:50;9.50;99.90
20915;DHT22;10617;52.032;5.298;2022-12-24T04:28:52;9.50;99.90
20915;DHT22;10617;52.032;5.298;2022-12-24T04:32:54;9.50;99.90
20915;DHT22;10617;52.032;5.298;2022-12-24T04:36:55;9.50;99.90
20915;DHT22;10617;52.032;5.298;2022-12-24T04:41:07;9.60;99.90
20915;DHT22;10617;52.032;5.298;2022-12-24T04:45:09;9.60;99.90
20915;DHT22;10617;52.032;5.298;2022-12-24T04:49:10;9.70;99.90
20915;DHT22;10617;52.032;5.298;2022-12-24T04:53:12;9.70;99.90
20915;DHT22;10617;52.032;5.298;2022-12-24T04:57:15;9.70;99.90
20915;DHT22;10617;52.032;5.298;2022-12-24T05:01:19;9.80;99.90
20915;DHT22;10617;52.032;5.298;2022-12-24T05:05:21;9.80;99.90
20915;DHT22;10617;52.032;5.298;2022-12-24T05:09:23;9.80;99.90
20915;DHT22;10617;52.032;5.298;2022-12-24T05:13:25;9.90;99.90
20915;DHT22;10617;52.032;5.298;2022-12-24T05:17:34;9.80;99.90
20915;DHT22;10617;52.032;5.298;2022-12-24T05:21:36;9.80;99.90
20915;DHT22;10617;52.032;5.298;2022-12-24T05:25:38;9.80;99.90
20915;DHT22;10617;52.032;5.298;2022-12-24T05:29:58;9.90;99.90
20915;DHT22;10617;52.032;5.298;2022-12-24T05:34:00;9.90;99.90
20915;DHT22;10617;52.032;5.298;2022-12-24T05:38:03;9.90;99.90
20915;DHT22;10617;52.032;5.298;2022-12-24T05:42:05;10.00;99.90
20915;DHT22;10617;52.032;5.298;2022-12-24T05:46:07;10.00;99.90
20915;DHT22;10617;52.032;5.298;2022-12-24T05:50:09;10.10;99.90
20915;DHT22;10617;52.032;5.298;2022-12-24T05:54:11;10.10;99.90
20915;DHT22;10617;52.032;5.298;2022-12-24T05:58:13;10.00;99.90
20915;DHT22;10617;52.032;5.298;2022-12-24T06:02:15;10.00;99.90
20915;DHT22;10617;52.032;5.298;2022-12-24T06:06:20;10.00;99.90
20915;DHT22;10617;52.032;5.298;2022-12-24T06:10:22;10.00;99.90
20915;DHT22;10617;52.032;5.298;2022-12-24T06:14:24;9.90;99.90
20915;DHT22;10617;52.032;5.298;2022-12-24T06:18:27;9.90;99.90
20915;DHT22;10617;52.032;5.298;2022-12-24T06:22:29;10.00;99.90
20915;DHT22;10617;52.032;5.298;2022-12-24T06:26:30;10.00;99.90
20915;DHT22;10617;52.032;5.298;2022-12-24T06:30:32;10.00;99.90
20915;DHT22;10617;52.032;5.298;2022-12-24T06:34:34;10.00;99.90
20915;DHT22;10617;52.032;5.298;2022-12-24T06:38:36;10.00;99.90
20915;DHT22;10617;52.032;5.298;2022-12-24T06:42:37;10.00;99.90
20915;DHT22;10617;52.032;5.298;2022-12-24T06:46:39;10.00;99.90
20915;DHT22;10617;52.032;5.298;2022-12-24T06:50:41;10.00;99.90
20915;DHT22;10617;52.032;5.298;2022-12-24T06:54:42;10.00;99.90
20915;DHT22;10617;52.032;5.298;2022-12-24T06:58:44;10.00;99.90
20915;DHT22;10617;52.032;5.298;2022-12-24T07:02:46;10.00;99.90
20915;DHT22;10617;52.032;5.298;2022-12-24T07:06:48;10.00;99.90
20915;DHT22;10617;52.032;5.298;2022-12-24T07:10:50;10.00;99.90
20915;DHT22;10617;52.032;5.298;2022-12-24T07:14:54;9.90;99.90
20915;DHT22;10617;52.032;5.298;2022-12-24T07:18:56;9.90;99.90
20915;DHT22;10617;52.032;5.298;2022-12-24T07:22:58;9.80;99.90
20915;DHT22;10617;52.032;5.298;2022-12-24T07:26:59;9.80;99.90
20915;DHT22;10617;52.032;5.298;2022-12-24T07:31:01;9.70;99.90
20915;DHT22;10617;52.032;5.298;2022-12-24T07:35:03;9.70;99.90
20915;DHT22;10617;52.032;5.298;2022-12-24T07:39:05;9.70;99.90
20915;DHT22;10617;52.032;5.298;2022-12-24T07:43:07;9.70;99.90
20915;DHT22;10617;52.032;5.298;2022-12-24T07:47:08;9.70;99.90
20915;DHT22;10617;52.032;5.298;2022-12-24T07:51:10;9.70;99.90
20915;DHT22;10617;52.032;5.298;2022-12-24T07:55:12;9.70;99.90
20915;DHT22;10617;52.032;5.298;2022-12-24T07:59:14;9.70;99.90
20915;DHT22;10617;52.032;5.298;2022-12-24T08:03:16;9.70;99.90
20915;DHT22;10617;52.032;5.298;2022-12-24T08:07:18;9.80;99.90
20915;DHT22;10617;52.032;5.298;2022-12-24T08:11:20;9.80;99.90
20915;DHT22;10617;52.032;5.298;2022-12-24T08:15:21;9.90;99.90
20915;DHT22;10617;52.032;5.298;2022-12-24T08:19:23;9.90;99.90
20915;DHT22;10617;52.032;5.298;2022-12-24T08:23:24;9.90;99.90
20915;DHT22;10617;52.032;5.298;2022-12-24T08:27:26;10.00;99.90
20915;DHT22;10617;52.032;5.298;2022-12-24T08:31:28;10.00;99.90
20915;DHT22;10617;52.032;5.298;2022-12-24T08:35:30;10.00;99.90
20915;DHT22;10617;52.032;5.298;2022-12-24T08:39:32;10.10;99.90
20915;DHT22;10617;52.032;5.298;2022-12-24T08:43:33;10.10;99.90
20915;DHT22;10617;52.032;5.298;2022-12-24T08:47:35;10.10;99.90
20915;DHT22;10617;52.032;5.298;2022-12-24T08:51:36;10.20;99.90
20915;DHT22;10617;52.032;5.298;2022-12-24T08:55:38;10.20;99.90
20915;DHT22;10617;52.032;5.298;2022-12-24T08:59:40;10.30;99.90
20915;DHT22;10617;52.032;5.298;2022-12-24T09:03:42;10.30;99.90
20915;DHT22;10617;52.032;5.298;2022-12-24T09:22:49;10.40;99.90
20915;DHT22;10617;52.032;5.298;2022-12-24T09:26:51;10.50;99.90
20915;DHT22;10617;52.032;5.298;2022-12-24T09:30:59;10.50;99.90
20915;DHT22;10617;52.032;5.298;2022-12-24T09:35:01;10.50;99.90
20915;DHT22;10617;52.032;5.298;2022-12-24T09:39:02;10.50;99.90
20915;DHT22;10617;52.032;5.298;2022-12-24T09:43:15;10.50;99.90
20915;DHT22;10617;52.032;5.298;2022-12-24T09:47:25;10.60;99.90
20915;DHT22;10617;52.032;5.298;2022-12-24T09:51:36;10.60;99.90
20915;DHT22;10617;52.032;5.298;2022-12-24T09:55:42;10.60;99.90
20915;DHT22;10617;52.032;5.298;2022-12-24T09:59:45;10.70;99.90
20915;DHT22;10617;52.032;5.298;2022-12-24T10:03:47;10.70;99.90
20915;DHT22;10617;52.032;5.298;2022-12-24T10:07:53;10.80;99.90
20915;DHT22;10617;52.032;5.298;2022-12-24T10:12:04;10.90;99.90
20915;DHT22;10617;52.032;5.298;2022-12-24T10:20:35;10.90;99.90
20915;DHT22;10617;52.032;5.298;2022-12-24T10:24:43;11.00;99.90
20915;DHT22;10617;52.032;5.298;2022-12-24T10:28:52;11.00;99.90
20915;DHT22;10617;52.032;5.298;2022-12-24T10:32:55;11.10;99.90
20915;DHT22;10617;52.032;5.298;2022-12-24T10:36:57;11.20;99.90
20915;DHT22;10617;52.032;5.298;2022-12-24T10:40:59;11.20;99.90
20915;DHT22;10617;52.032;5.298;2022-12-24T10:45:03;11.30;99.90
20915;DHT22;10617;52.032;5.298;2022-12-24T10:49:06;11.30;99.90
20915;DHT22;10617;52.032;5.298;2022-12-24T11:08:19;11.20;99.90
20915;DHT22;10617;52.032;5.298;2022-12-24T11:12:21;11.20;99.90
20915;DHT22;10617;52.032;5.298;2022-12-24T11:16:25;11.20;99.90
20915;DHT22;10617;52.032;5.298;2022-12-24T11:20:29;11.20;99.90
20915;DHT22;10617;52.032;5.298;2022-12-24T11:24:35;11.40;99.90
20915;DHT22;10617;52.032;5.298;2022-12-24T11:28:38;11.60;99.90
20915;DHT22;10617;52.032;5.298;2022-12-24T11:32:44;11.70;99.90
20915;DHT22;10617;52.032;5.298;2022-12-24T11:36:47;11.80;99.90
20915;DHT22;10617;52.032;5.298;2022-12-24T11:40:49;11.70;99.90
20915;DHT22;10617;52.032;5.298;2022-12-24T11:44:58;11.70;99.90
20915;DHT22;10617;52.032;5.298;2022-12-24T11:49:43;11.70;99.90
20915;DHT22;10617;52.032;5.298;2022-12-24T11:53:42;11.80;99.90
20915;DHT22;10617;52.032;5.298;2022-12-24T12:01:54;11.90;99.90
20915;DHT22;10617;52.032;5.298;2022-12-24T12:05:57;12.10;99.90
20915;DHT22;10617;52.032;5.298;2022-12-24T12:14:12;12.50;99.90
20915;DHT22;10617;52.032;5.298;2022-12-24T12:18:17;12.40;99.90
20915;DHT22;10617;52.032;5.298;2022-12-24T12:22:25;12.10;99.90
20915;DHT22;10617;52.032;5.298;2022-12-24T12:26:29;11.90;99.90
20915;DHT22;10617;52.032;5.298;2022-12-24T12:30:32;11.70;99.90
20915;DHT22;10617;52.032;5.298;2022-12-24T12:34:39;11.60;99.90
20915;DHT22;10617;52.032;5.298;2022-12-24T12:38:42;11.50;99.90
20915;DHT22;10617;52.032;5.298;2022-12-24T12:42:47;11.50;99.90
20915;DHT22;10617;52.032;5.298;2022-12-24T12:55:15;11.50;99.90
20915;DHT22;10617;52.032;5.298;2022-12-24T13:12:10;12.20;99.90
20915;DHT22;10617;52.032;5.298;2022-12-24T13:16:23;12.10;99.90
20915;DHT22;10617;52.032;5.298;2022-12-24T13:20:30;12.00;99.90
20915;DHT22;10617;52.032;5.298;2022-12-24T13:24:32;12.00;99.90
20915;DHT22;10617;52.032;5.298;2022-12-24T13:28:35;12.30;99.90
20915;DHT22;10617;52.032;5.298;2022-12-24T13:32:45;12.50;99.90
20915;DHT22;10617;52.032;5.298;2022-12-24T13:37:01;12.60;99.90
20915;DHT22;10617;52.032;5.298;2022-12-24T13:49:36;12.20;99.90
20915;DHT22;10617;52.032;5.298;2022-12-24T14:01:42;12.00;99.90
20915;DHT22;10617;52.032;5.298;2022-12-24T14:05:46;12.00;99.90
20915;DHT22;10617;52.032;5.298;2022-12-24T14:09:50;12.10;99.90
20915;DHT22;10617;52.032;5.298;2022-12-24T14:13:54;12.10;99.90
20915;DHT22;10617;52.032;5.298;2022-12-24T14:17:56;12.10;99.90
20915;DHT22;10617;52.032;5.298;2022-12-24T14:22:00;12.10;99.90
20915;DHT22;10617;52.032;5.298;2022-12-24T14:26:03;12.10;99.90
20915;DHT22;10617;52.032;5.298;2022-12-24T14:34:14;12.20;99.90
20915;DHT22;10617;52.032;5.298;2022-12-24T14:38:16;12.30;99.90
20915;DHT22;10617;52.032;5.298;2022-12-24T14:42:45;12.20;99.90
20915;DHT22;10617;52.032;5.298;2022-12-24T14:47:00;12.20;99.90
20915;DHT22;10617;52.032;5.298;2022-12-24T14:59:29;12.40;99.90
20915;DHT22;10617;52.032;5.298;2022-12-24T15:03:31;12.50;99.90
20915;DHT22;10617;52.032;5.298;2022-12-24T15:07:33;12.40;99.90
20915;DHT22;10617;52.032;5.298;2022-12-24T15:11:36;12.30;99.90
20915;DHT22;10617;52.032;5.298;2022-12-24T15:15:38;12.00;99.90
20915;DHT22;10617;52.032;5.298;2022-12-24T15:19:48;11.80;99.90
20915;DHT22;10617;52.032;5.298;2022-12-24T15:23:52;11.50;99.90
20915;DHT22;10617;52.032;5.298;2022-12-24T15:27:54;11.30;99.90
20915;DHT22;10617;52.032;5.298;2022-12-24T15:31:57;11.10;99.90
20915;DHT22;10617;52.032;5.298;2022-12-24T15:35:59;10.90;99.90
20915;DHT22;10617;52.032;5.298;2022-12-24T15:40:06;10.80;99.90
20915;DHT22;10617;52.032;5.298;2022-12-24T15:44:11;10.60;99.90
20915;DHT22;10617;52.032;5.298;2022-12-24T15:48:21;10.50;99.90
20915;DHT22;10617;52.032;5.298;2022-12-24T15:52:24;10.40;99.90
20915;DHT22;10617;52.032;5.298;2022-12-24T15:56:27;10.30;99.90
20915;DHT22;10617;52.032;5.298;2022-12-24T16:00:31;10.20;99.90
20915;DHT22;10617;52.032;5.298;2022-12-24T16:04:33;10.10;99.90
20915;DHT22;10617;52.032;5.298;2022-12-24T16:08:38;10.10;99.90
20915;DHT22;10617;52.032;5.298;2022-12-24T16:12:40;10.00;99.90
20915;DHT22;10617;52.032;5.298;2022-12-24T16:16:43;9.90;99.90
20915;DHT22;10617;52.032;5.298;2022-12-24T16:20:49;9.90;99.90
20915;DHT22;10617;52.032;5.298;2022-12-24T16:24:51;9.80;99.90
20915;DHT22;10617;52.032;5.298;2022-12-24T16:28:56;9.80;99.90
20915;DHT22;10617;52.032;5.298;2022-12-24T16:32:57;9.70;99.90
20915;DHT22;10617;52.032;5.298;2022-12-24T16:36:59;9.60;99.90
20915;DHT22;10617;52.032;5.298;2022-12-24T16:41:01;9.50;99.90
20915;DHT22;10617;52.032;5.298;2022-12-24T16:45:03;9.40;99.90
20915;DHT22;10617;52.032;5.298;2022-12-24T16:49:05;9.30;99.90
20915;DHT22;10617;52.032;5.298;2022-12-24T16:53:07;9.20;99.90
20915;DHT22;10617;52.032;5.298;2022-12-24T16:57:14;9.20;99.90
20915;DHT22;10617;52.032;5.298;2022-12-24T17:01:16;9.10;99.90
20915;DHT22;10617;52.032;5.298;2022-12-24T17:05:18;9.00;99.90
20915;DHT22;10617;52.032;5.298;2022-12-24T17:09:19;8.90;99.90
20915;DHT22;10617;52.032;5.298;2022-12-24T17:13:21;8.90;99.90
20915;DHT22;10617;52.032;5.298;2022-12-24T17:17:24;8.80;99.90
20915;DHT22;10617;52.032;5.298;2022-12-24T17:21:26;8.70;99.90
20915;DHT22;10617;52.032;5.298;2022-12-24T17:25:28;8.70;99.90
20915;DHT22;10617;52.032;5.298;2022-12-24T17:29:29;8.60;99.90
20915;DHT22;10617;52.032;5.298;2022-12-24T17:33:31;8.50;99.90
20915;DHT22;10617;52.032;5.298;2022-12-24T17:37:33;8.40;99.90
20915;DHT22;10617;52.032;5.298;2022-12-24T17:41:34;8.30;99.90
20915;DHT22;10617;52.032;5.298;2022-12-24T17:45:39;8.20;99.90
20915;DHT22;10617;52.032;5.298;2022-12-24T17:49:42;8.10;99.90
20915;DHT22;10617;52.032;5.298;2022-12-24T17:53:43;8.00;99.90
20915;DHT22;10617;52.032;5.298;2022-12-24T17:57:45;8.00;99.90
20915;DHT22;10617;52.032;5.298;2022-12-24T18:01:47;7.90;99.90
20915;DHT22;10617;52.032;5.298;2022-12-24T18:26:31;7.60;99.90
20915;DHT22;10617;52.032;5.298;2022-12-24T18:30:33;7.60;99.90
20915;DHT22;10617;52.032;5.298;2022-12-24T18:34:35;7.70;99.90
20915;DHT22;10617;52.032;5.298;2022-12-24T18:38:37;7.70;99.90
20915;DHT22;10617;52.032;5.298;2022-12-24T18:42:39;7.80;99.90
20915;DHT22;10617;52.032;5.298;2022-12-24T18:46:41;7.80;99.90
20915;DHT22;10617;52.032;5.298;2022-12-24T18:50:43;7.90;99.90
20915;DHT22;10617;52.032;5.298;2022-12-24T18:54:54;8.00;99.90
20915;DHT22;10617;52.032;5.298;2022-12-24T18:58:57;8.00;99.90
20915;DHT22;10617;52.032;5.298;2022-12-24T19:02:59;8.10;99.90
20915;DHT22;10617;52.032;5.298;2022-12-24T19:07:00;8.10;99.90
20915;DHT22;10617;52.032;5.298;2022-12-24T19:11:02;8.10;99.90
20915;DHT22;10617;52.032;5.298;2022-12-24T19:15:04;8.10;99.90
20915;DHT22;10617;52.032;5.298;2022-12-24T19:19:07;8.00;99.90
20915;DHT22;10617;52.032;5.298;2022-12-24T19:23:09;8.00;99.90
20915;DHT22;10617;52.032;5.298;2022-12-24T19:27:13;8.00;99.90
20915;DHT22;10617;52.032;5.298;2022-12-24T19:31:15;8.00;99.90
20915;DHT22;10617;52.032;5.298;2022-12-24T19:35:17;8.10;99.90
20915;DHT22;10617;52.032;5.298;2022-12-24T19:39:19;8.10;99.90
20915;DHT22;10617;52.032;5.298;2022-12-24T19:43:20;8.20;99.90
20915;DHT22;10617;52.032;5.298;2022-12-24T19:47:22;8.20;99.90
20915;DHT22;10617;52.032;5.298;2022-12-24T19:51:24;8.20;99.90
20915;DHT22;10617;52.032;5.298;2022-12-24T19:55:26;8.30;99.90
20915;DHT22;10617;52.032;5.298;2022-12-24T19:59:28;8.40;99.90
20915;DHT22;10617;52.032;5.298;2022-12-24T20:03:30;8.40;99.90
20915;DHT22;10617;52.032;5.298;2022-12-24T20:07:32;8.40;99.90
20915;DHT22;10617;52.032;5.298;2022-12-24T20:11:33;8.40;99.90
20915;DHT22;10617;52.032;5.298;2022-12-24T20:15:39;8.50;99.90
20915;DHT22;10617;52.032;5.298;2022-12-24T20:19:40;8.50;99.90
20915;DHT22;10617;52.032;5.298;2022-12-24T20:23:42;8.60;99.90
20915;DHT22;10617;52.032;5.298;2022-12-24T20:27:44;8.60;99.90
20915;DHT22;10617;52.032;5.298;2022-12-24T20:31:45;8.70;99.90
20915;DHT22;10617;52.032;5.298;2022-12-24T20:35:47;8.70;99.90
20915;DHT22;10617;52.032;5.298;2022-12-24T20:39:49;8.80;99.90
20915;DHT22;10617;52.032;5.298;2022-12-24T20:43:51;8.80;99.90
20915;DHT22;10617;52.032;5.298;2022-12-24T20:47:52;8.90;99.90
20915;DHT22;10617;52.032;5.298;2022-12-24T20:51:54;8.90;99.90
20915;DHT22;10617;52.032;5.298;2022-12-24T20:55:57;8.90;99.90
20915;DHT22;10617;52.032;5.298;2022-12-24T20:59:58;8.90;99.90
20915;DHT22;10617;52.032;5.298;2022-12-24T21:14:09;8.90;99.90
20915;DHT22;10617;52.032;5.298;2022-12-24T21:18:11;8.90;99.90
20915;DHT22;10617;52.032;5.298;2022-12-24T21:22:13;8.90;99.90
20915;DHT22;10617;52.032;5.298;2022-12-24T21:26:14;8.80;99.90
20915;DHT22;10617;52.032;5.298;2022-12-24T21:30:16;8.80;99.90
20915;DHT22;10617;52.032;5.298;2022-12-24T21:34:18;8.80;99.90
20915;DHT22;10617;52.032;5.298;2022-12-24T21:38:20;8.70;99.90
20915;DHT22;10617;52.032;5.298;2022-12-24T21:42:21;8.70;99.90
20915;DHT22;10617;52.032;5.298;2022-12-24T21:46:23;8.60;99.90
20915;DHT22;10617;52.032;5.298;2022-12-24T21:50:26;8.60;99.90
20915;DHT22;10617;52.032;5.298;2022-12-24T21:54:46;8.60;99.90
20915;DHT22;10617;52.032;5.298;2022-12-24T21:58:48;8.50;99.90
20915;DHT22;10617;52.032;5.298;2022-12-24T22:02:54;8.50;99.90
20915;DHT22;10617;52.032;5.298;2022-12-24T22:06:56;8.40;99.90
20915;DHT22;10617;52.032;5.298;2022-12-24T22:11:16;8.40;99.90
20915;DHT22;10617;52.032;5.298;2022-12-24T22:16:10;8.40;99.90
20915;DHT22;10617;52.032;5.298;2022-12-24T22:20:05;8.40;99.90
20915;DHT22;10617;52.032;5.298;2022-12-24T22:24:07;8.40;99.90
20915;DHT22;10617;52.032;5.298;2022-12-24T22:28:08;8.40;99.90
20915;DHT22;10617;52.032;5.298;2022-12-24T22:32:10;8.40;99.90
20915;DHT22;10617;52.032;5.298;2022-12-24T22:36:12;8.40;99.90
20915;DHT22;10617;52.032;5.298;2022-12-24T22:40:13;8.40;99.90
20915;DHT22;10617;52.032;5.298;2022-12-24T22:54:23;8.30;99.90
20915;DHT22;10617;52.032;5.298;2022-12-24T22:58:25;8.30;99.90
20915;DHT22;10617;52.032;5.298;2022-12-24T23:02:26;8.20;99.90
20915;DHT22;10617;52.032;5.298;2022-12-24T23:06:29;8.30;99.90
20915;DHT22;10617;52.032;5.298;2022-12-24T23:10:31;8.20;99.90
20915;DHT22;10617;52.032;5.298;2022-12-24T23:14:32;8.20;99.90
20915;DHT22;10617;52.032;5.298;2022-12-24T23:18:54;8.20;99.90
20915;DHT22;10617;52.032;5.298;2022-12-24T23:22:56;8.30;99.90
20915;DHT22;10617;52.032;5.298;2022-12-24T23:26:58;8.30;99.90
20915;DHT22;10617;52.032;5.298;2022-12-24T23:31:01;8.30;99.90
20915;DHT22;10617;52.032;5.298;2022-12-24T23:35:03;8.40;99.90
20915;DHT22;10617;52.032;5.298;2022-12-24T23:39:05;8.40;99.90
20915;DHT22;10617;52.032;5.298;2022-12-24T23:43:07;8.40;99.90
20915;DHT22;10617;52.032;5.298;2022-12-24T23:47:09;8.40;99.90
20915;DHT22;10617;52.032;5.298;2022-12-24T23:51:11;8.50;99.90
20915;DHT22;10617;52.032;5.298;2022-12-24T23:55:14;8.50;99.90
20915;DHT22;10617;52.032;5.298;2022-12-24T23:59:15;8.50;99.90
